sensor_id;sensor_type;location;lat;lon;timestamp;temperature;humidity
25092;DHT22;13082;52.374;4.946;2023-05-10T00:01:37;13.80;99.90
25092;DHT22;13082;52.374;4.946;2023-05-10T00:04:03;13.80;99.90
25092;DHT22;13082;52.374;4.946;2023-05-10T00:06:29;13.80;99.90
25092;DHT22;13082;52.374;4.946;2023-05-10T00:08:55;13.80;99.90
25092;DHT22;13082;52.374;4.946;2023-05-10T00:11:21;13.80;99.90
25092;DHT22;13082;52.374;4.946;2023-05-10T00:13:46;13.70;99.90
25092;DHT22;13082;52.374;4.946;2023-05-10T00:16:12;13.80;99.90
25092;DHT22;13082;52.374;4.946;2023-05-10T00:18:39;13.70;99.90
25092;DHT22;13082;52.374;4.946;2023-05-10T00:21:05;13.70;99.90
25092;DHT22;13082;52.374;4.946;2023-05-10T00:23:31;13.80;99.90
25092;DHT22;13082;52.374;4.946;2023-05-10T00:25:56;13.80;99.90
25092;DHT22;13082;52.374;4.946;2023-05-10T00:28:22;13.80;99.90
25092;DHT22;13082;52.374;4.946;2023-05-10T00:30:48;13.80;99.90
25092;DHT22;13082;52.374;4.946;2023-05-10T00:33:13;13.80;99.90
25092;DHT22;13082;52.374;4.946;2023-05-10T00:35:39;13.80;99.90
25092;DHT22;13082;52.374;4.946;2023-05-10T00:38:05;13.80;99.90
25092;DHT22;13082;52.374;4.946;2023-05-10T00:40:31;13.80;99.90
25092;DHT22;13082;52.374;4.946;2023-05-10T00:42:57;13.70;99.90
25092;DHT22;13082;52.374;4.946;2023-05-10T00:45:24;13.70;99.90
25092;DHT22;13082;52.374;4.946;2023-05-10T00:47:50;13.70;99.90
25092;DHT22;13082;52.374;4.946;2023-05-10T00:50:17;13.70;99.90
25092;DHT22;13082;52.374;4.946;2023-05-10T00:52:43;13.60;99.90
25092;DHT22;13082;52.374;4.946;2023-05-10T00:55:11;13.60;99.90
25092;DHT22;13082;52.374;4.946;2023-05-10T00:57:37;13.60;99.90
25092;DHT22;13082;52.374;4.946;2023-05-10T01:00:04;13.50;99.90
25092;DHT22;13082;52.374;4.946;2023-05-10T01:02:30;13.50;99.90
25092;DHT22;13082;52.374;4.946;2023-05-10T01:04:55;13.50;99.90
25092;DHT22;13082;52.374;4.946;2023-05-10T01:07:21;13.50;99.90
25092;DHT22;13082;52.374;4.946;2023-05-10T01:09:47;13.40;99.90
25092;DHT22;13082;52.374;4.946;2023-05-10T01:12:12;13.40;99.90
25092;DHT22;13082;52.374;4.946;2023-05-10T01:14:38;13.50;99.90
25092;DHT22;13082;52.374;4.946;2023-05-10T01:17:05;13.50;99.90
25092;DHT22;13082;52.374;4.946;2023-05-10T01:19:33;13.50;99.90
25092;DHT22;13082;52.374;4.946;2023-05-10T01:38:53;13.40;99.90
25092;DHT22;13082;52.374;4.946;2023-05-10T01:41:42;13.50;99.90
25092;DHT22;13082;52.374;4.946;2023-05-10T01:46:53;13.50;99.90
25092;DHT22;13082;52.374;4.946;2023-05-10T01:49:27;13.40;99.90
25092;DHT22;13082;52.374;4.946;2023-05-10T01:51:59;13.50;99.90
25092;DHT22;13082;52.374;4.946;2023-05-10T01:54:27;13.50;99.90
25092;DHT22;13082;52.374;4.946;2023-05-10T01:57:01;13.50;99.90
25092;DHT22;13082;52.374;4.946;2023-05-10T01:59:31;13.40;99.90
25092;DHT22;13082;52.374;4.946;2023-05-10T02:02:02;13.50;99.90
25092;DHT22;13082;52.374;4.946;2023-05-10T02:04:30;13.50;99.90
25092;DHT22;13082;52.374;4.946;2023-05-10T02:06:56;13.60;99.90
25092;DHT22;13082;52.374;4.946;2023-05-10T02:09:24;13.50;99.90
25092;DHT22;13082;52.374;4.946;2023-05-10T02:11:50;13.50;99.90
25092;DHT22;13082;52.374;4.946;2023-05-10T02:14:17;13.50;99.90
25092;DHT22;13082;52.374;4.946;2023-05-10T02:16:45;13.50;99.90
25092;DHT22;13082;52.374;4.946;2023-05-10T02:19:12;13.50;99.90
25092;DHT22;13082;52.374;4.946;2023-05-10T02:21:40;13.50;99.90
25092;DHT22;13082;52.374;4.946;2023-05-10T02:24:07;13.50;99.90
25092;DHT22;13082;52.374;4.946;2023-05-10T02:26:35;13.50;99.90
25092;DHT22;13082;52.374;4.946;2023-05-10T02:29:02;13.50;99.90
25092;DHT22;13082;52.374;4.946;2023-05-10T02:31:32;13.50;99.90
25092;DHT22;13082;52.374;4.946;2023-05-10T02:33:59;13.50;99.90
25092;DHT22;13082;52.374;4.946;2023-05-10T02:36:27;13.50;99.90
25092;DHT22;13082;52.374;4.946;2023-05-10T02:38:54;13.50;99.90
25092;DHT22;13082;52.374;4.946;2023-05-10T02:41:21;13.50;99.90
25092;DHT22;13082;52.374;4.946;2023-05-10T02:43:50;13.50;99.90
25092;DHT22;13082;52.374;4.946;2023-05-10T02:46:18;13.40;99.90
25092;DHT22;13082;52.374;4.946;2023-05-10T02:48:44;13.40;99.90
25092;DHT22;13082;52.374;4.946;2023-05-10T02:51:12;13.40;99.90
25092;DHT22;13082;52.374;4.946;2023-05-10T02:53:41;13.40;99.90
25092;DHT22;13082;52.374;4.946;2023-05-10T02:56:19;13.40;99.90
25092;DHT22;13082;52.374;4.946;2023-05-10T02:58:48;13.40;99.90
25092;DHT22;13082;52.374;4.946;2023-05-10T03:01:13;13.30;99.90
25092;DHT22;13082;52.374;4.946;2023-05-10T03:03:39;13.30;99.90
25092;DHT22;13082;52.374;4.946;2023-05-10T03:06:05;13.30;99.90
25092;DHT22;13082;52.374;4.946;2023-05-10T03:08:30;13.30;99.90
25092;DHT22;13082;52.374;4.946;2023-05-10T03:11:13;13.40;99.90
25092;DHT22;13082;52.374;4.946;2023-05-10T03:16:29;13.30;99.90
25092;DHT22;13082;52.374;4.946;2023-05-10T03:19:12;13.20;99.90
25092;DHT22;13082;52.374;4.946;2023-05-10T03:21:43;13.30;99.90
25092;DHT22;13082;52.374;4.946;2023-05-10T03:24:12;13.30;99.90
25092;DHT22;13082;52.374;4.946;2023-05-10T03:26:41;13.30;99.90
25092;DHT22;13082;52.374;4.946;2023-05-10T03:29:09;13.30;99.90
25092;DHT22;13082;52.374;4.946;2023-05-10T03:31:35;13.30;99.90
25092;DHT22;13082;52.374;4.946;2023-05-10T03:34:01;13.20;99.90
25092;DHT22;13082;52.374;4.946;2023-05-10T03:36:26;13.30;99.90
25092;DHT22;13082;52.374;4.946;2023-05-10T03:38:52;13.30;99.90
25092;DHT22;13082;52.374;4.946;2023-05-10T03:41:18;13.20;99.90
25092;DHT22;13082;52.374;4.946;2023-05-10T03:43:43;13.20;99.90
25092;DHT22;13082;52.374;4.946;2023-05-10T03:46:09;13.20;99.90
25092;DHT22;13082;52.374;4.946;2023-05-10T03:48:35;13.20;99.90
25092;DHT22;13082;52.374;4.946;2023-05-10T03:51:00;13.10;99.90
25092;DHT22;13082;52.374;4.946;2023-05-10T03:53:26;13.10;99.90
25092;DHT22;13082;52.374;4.946;2023-05-10T03:55:52;13.10;99.90
25092;DHT22;13082;52.374;4.946;2023-05-10T03:58:17;13.00;99.90
25092;DHT22;13082;52.374;4.946;2023-05-10T04:00:43;13.00;99.90
25092;DHT22;13082;52.374;4.946;2023-05-10T04:03:11;13.00;99.90
25092;DHT22;13082;52.374;4.946;2023-05-10T04:05:37;13.00;99.90
25092;DHT22;13082;52.374;4.946;2023-05-10T04:08:03;13.00;99.90
25092;DHT22;13082;52.374;4.946;2023-05-10T04:10:29;13.10;99.90
25092;DHT22;13082;52.374;4.946;2023-05-10T04:12:55;13.10;99.90
25092;DHT22;13082;52.374;4.946;2023-05-10T04:15:21;13.20;99.90
25092;DHT22;13082;52.374;4.946;2023-05-10T04:17:46;13.10;99.90
25092;DHT22;13082;52.374;4.946;2023-05-10T04:20:12;13.00;99.90
25092;DHT22;13082;52.374;4.946;2023-05-10T04:22:38;13.10;99.90
25092;DHT22;13082;52.374;4.946;2023-05-10T04:25:04;13.10;99.90
25092;DHT22;13082;52.374;4.946;2023-05-10T04:27:30;13.10;99.90
25092;DHT22;13082;52.374;4.946;2023-05-10T04:29:56;13.10;99.90
25092;DHT22;13082;52.374;4.946;2023-05-10T04:32:22;13.10;99.90
25092;DHT22;13082;52.374;4.946;2023-05-10T04:34:48;13.10;99.90
25092;DHT22;13082;52.374;4.946;2023-05-10T04:37:13;13.20;99.90
25092;DHT22;13082;52.374;4.946;2023-05-10T04:39:39;13.20;99.90
25092;DHT22;13082;52.374;4.946;2023-05-10T04:42:05;13.20;99.90
25092;DHT22;13082;52.374;4.946;2023-05-10T04:44:31;13.10;99.90
25092;DHT22;13082;52.374;4.946;2023-05-10T04:46:57;13.10;99.90
25092;DHT22;13082;52.374;4.946;2023-05-10T04:49:22;13.10;99.90
25092;DHT22;13082;52.374;4.946;2023-05-10T04:51:48;13.10;99.90
25092;DHT22;13082;52.374;4.946;2023-05-10T04:54:14;13.10;99.90
25092;DHT22;13082;52.374;4.946;2023-05-10T04:56:39;13.10;99.90
25092;DHT22;13082;52.374;4.946;2023-05-10T04:59:06;13.10;99.90
25092;DHT22;13082;52.374;4.946;2023-05-10T05:01:32;13.10;99.90
25092;DHT22;13082;52.374;4.946;2023-05-10T05:03:58;13.10;99.90
25092;DHT22;13082;52.374;4.946;2023-05-10T05:06:23;13.10;99.90
25092;DHT22;13082;52.374;4.946;2023-05-10T05:08:50;13.10;99.90
25092;DHT22;13082;52.374;4.946;2023-05-10T05:11:16;13.20;99.90
25092;DHT22;13082;52.374;4.946;2023-05-10T05:13:42;13.10;99.90
25092;DHT22;13082;52.374;4.946;2023-05-10T05:16:08;13.10;99.90
25092;DHT22;13082;52.374;4.946;2023-05-10T05:18:34;13.20;99.90
25092;DHT22;13082;52.374;4.946;2023-05-10T05:21:00;13.20;99.90
25092;DHT22;13082;52.374;4.946;2023-05-10T05:23:26;13.20;99.90
25092;DHT22;13082;52.374;4.946;2023-05-10T05:25:52;13.30;99.90
25092;DHT22;13082;52.374;4.946;2023-05-10T05:28:21;13.30;99.90
25092;DHT22;13082;52.374;4.946;2023-05-10T05:30:47;13.20;99.90
25092;DHT22;13082;52.374;4.946;2023-05-10T05:33:15;13.20;99.90
25092;DHT22;13082;52.374;4.946;2023-05-10T05:35:41;13.20;99.90
25092;DHT22;13082;52.374;4.946;2023-05-10T05:38:10;13.20;99.90
25092;DHT22;13082;52.374;4.946;2023-05-10T05:40:35;13.30;99.90
25092;DHT22;13082;52.374;4.946;2023-05-10T05:43:01;13.30;99.90
25092;DHT22;13082;52.374;4.946;2023-05-10T05:45:26;13.30;99.90
25092;DHT22;13082;52.374;4.946;2023-05-10T05:47:52;13.40;99.90
25092;DHT22;13082;52.374;4.946;2023-05-10T05:50:18;13.30;99.90
25092;DHT22;13082;52.374;4.946;2023-05-10T05:52:43;13.30;99.90
25092;DHT22;13082;52.374;4.946;2023-05-10T05:55:09;13.40;99.90
25092;DHT22;13082;52.374;4.946;2023-05-10T05:57:34;13.40;99.90
25092;DHT22;13082;52.374;4.946;2023-05-10T06:00:00;13.40;99.90
25092;DHT22;13082;52.374;4.946;2023-05-10T06:02:26;13.40;99.90
25092;DHT22;13082;52.374;4.946;2023-05-10T06:04:51;13.40;99.90
25092;DHT22;13082;52.374;4.946;2023-05-10T06:07:17;13.30;99.90
25092;DHT22;13082;52.374;4.946;2023-05-10T06:09:43;13.30;99.90
25092;DHT22;13082;52.374;4.946;2023-05-10T06:12:08;13.30;99.90
25092;DHT22;13082;52.374;4.946;2023-05-10T06:14:34;13.30;99.90
25092;DHT22;13082;52.374;4.946;2023-05-10T06:16:59;13.40;99.90
25092;DHT22;13082;52.374;4.946;2023-05-10T06:19:25;13.40;99.90
25092;DHT22;13082;52.374;4.946;2023-05-10T06:21:51;13.40;99.90
25092;DHT22;13082;52.374;4.946;2023-05-10T06:24:17;13.40;99.90
25092;DHT22;13082;52.374;4.946;2023-05-10T06:26:42;13.40;99.90
25092;DHT22;13082;52.374;4.946;2023-05-10T06:29:08;13.50;99.90
25092;DHT22;13082;52.374;4.946;2023-05-10T06:31:34;13.40;99.90
25092;DHT22;13082;52.374;4.946;2023-05-10T06:33:59;13.50;99.90
25092;DHT22;13082;52.374;4.946;2023-05-10T06:36:25;13.50;99.90
25092;DHT22;13082;52.374;4.946;2023-05-10T06:38:51;13.50;99.90
25092;DHT22;13082;52.374;4.946;2023-05-10T06:41:17;13.40;99.90
25092;DHT22;13082;52.374;4.946;2023-05-10T06:43:42;13.50;99.90
25092;DHT22;13082;52.374;4.946;2023-05-10T06:46:08;13.50;99.90
25092;DHT22;13082;52.374;4.946;2023-05-10T06:48:34;13.50;99.90
25092;DHT22;13082;52.374;4.946;2023-05-10T06:51:00;13.50;99.90
25092;DHT22;13082;52.374;4.946;2023-05-10T06:53:25;13.50;99.90
25092;DHT22;13082;52.374;4.946;2023-05-10T06:55:51;13.50;99.90
25092;DHT22;13082;52.374;4.946;2023-05-10T06:58:17;13.50;99.90
25092;DHT22;13082;52.374;4.946;2023-05-10T07:00:43;13.50;99.90
25092;DHT22;13082;52.374;4.946;2023-05-10T07:03:09;13.50;99.90
25092;DHT22;13082;52.374;4.946;2023-05-10T07:05:36;13.50;99.90
25092;DHT22;13082;52.374;4.946;2023-05-10T07:08:01;13.50;99.90
25092;DHT22;13082;52.374;4.946;2023-05-10T07:10:27;13.50;99.90
25092;DHT22;13082;52.374;4.946;2023-05-10T07:12:53;13.50;99.90
25092;DHT22;13082;52.374;4.946;2023-05-10T07:15:18;13.50;99.90
25092;DHT22;13082;52.374;4.946;2023-05-10T07:17:44;13.50;99.90
25092;DHT22;13082;52.374;4.946;2023-05-10T07:20:11;13.50;99.90
25092;DHT22;13082;52.374;4.946;2023-05-10T07:22:36;13.50;99.90
25092;DHT22;13082;52.374;4.946;2023-05-10T07:25:02;13.60;99.90
25092;DHT22;13082;52.374;4.946;2023-05-10T07:27:27;13.50;99.90
25092;DHT22;13082;52.374;4.946;2023-05-10T07:29:53;13.60;99.90
25092;DHT22;13082;52.374;4.946;2023-05-10T07:32:20;13.70;99.90
25092;DHT22;13082;52.374;4.946;2023-05-10T07:34:45;13.70;99.90
25092;DHT22;13082;52.374;4.946;2023-05-10T07:37:11;13.70;99.90
25092;DHT22;13082;52.374;4.946;2023-05-10T07:39:37;13.70;99.90
25092;DHT22;13082;52.374;4.946;2023-05-10T07:42:03;13.70;99.90
25092;DHT22;13082;52.374;4.946;2023-05-10T07:44:29;13.70;99.90
25092;DHT22;13082;52.374;4.946;2023-05-10T07:46:55;13.70;99.90
25092;DHT22;13082;52.374;4.946;2023-05-10T07:49:21;13.70;99.90
25092;DHT22;13082;52.374;4.946;2023-05-10T07:51:47;13.70;99.90
25092;DHT22;13082;52.374;4.946;2023-05-10T07:54:13;13.70;99.90
25092;DHT22;13082;52.374;4.946;2023-05-10T07:56:39;13.70;99.90
25092;DHT22;13082;52.374;4.946;2023-05-10T07:59:05;13.70;99.90
25092;DHT22;13082;52.374;4.946;2023-05-10T08:01:34;13.80;99.90
25092;DHT22;13082;52.374;4.946;2023-05-10T08:04:00;13.80;99.90
25092;DHT22;13082;52.374;4.946;2023-05-10T08:06:26;13.90;99.90
25092;DHT22;13082;52.374;4.946;2023-05-10T08:08:53;14.00;99.90
25092;DHT22;13082;52.374;4.946;2023-05-10T08:11:22;14.10;99.90
25092;DHT22;13082;52.374;4.946;2023-05-10T08:13:49;14.20;99.90
25092;DHT22;13082;52.374;4.946;2023-05-10T08:16:16;14.20;99.90
25092;DHT22;13082;52.374;4.946;2023-05-10T08:18:44;14.20;99.90
25092;DHT22;13082;52.374;4.946;2023-05-10T08:21:10;14.30;99.90
25092;DHT22;13082;52.374;4.946;2023-05-10T08:23:37;14.30;99.90
25092;DHT22;13082;52.374;4.946;2023-05-10T08:26:03;14.30;99.90
25092;DHT22;13082;52.374;4.946;2023-05-10T08:28:28;14.30;99.90
25092;DHT22;13082;52.374;4.946;2023-05-10T08:30:54;14.40;99.90
25092;DHT22;13082;52.374;4.946;2023-05-10T08:33:22;14.40;99.90
25092;DHT22;13082;52.374;4.946;2023-05-10T08:35:48;14.40;99.90
25092;DHT22;13082;52.374;4.946;2023-05-10T08:38:14;14.40;99.90
25092;DHT22;13082;52.374;4.946;2023-05-10T08:40:43;14.50;99.90
25092;DHT22;13082;52.374;4.946;2023-05-10T08:43:11;14.50;99.90
25092;DHT22;13082;52.374;4.946;2023-05-10T08:45:44;14.50;99.90
25092;DHT22;13082;52.374;4.946;2023-05-10T08:48:14;14.50;99.90
25092;DHT22;13082;52.374;4.946;2023-05-10T08:50:41;14.50;99.90
25092;DHT22;13082;52.374;4.946;2023-05-10T08:53:11;14.40;99.90
25092;DHT22;13082;52.374;4.946;2023-05-10T08:55:38;14.50;99.90
25092;DHT22;13082;52.374;4.946;2023-05-10T08:58:06;14.40;99.90
25092;DHT22;13082;52.374;4.946;2023-05-10T09:00:32;14.50;99.90
25092;DHT22;13082;52.374;4.946;2023-05-10T09:02:59;14.50;99.90
25092;DHT22;13082;52.374;4.946;2023-05-10T09:05:25;14.50;99.90
25092;DHT22;13082;52.374;4.946;2023-05-10T09:07:51;14.50;99.90
25092;DHT22;13082;52.374;4.946;2023-05-10T09:10:17;14.60;99.90
25092;DHT22;13082;52.374;4.946;2023-05-10T09:12:44;14.60;99.90
25092;DHT22;13082;52.374;4.946;2023-05-10T09:15:11;14.70;99.90
25092;DHT22;13082;52.374;4.946;2023-05-10T09:17:38;14.80;99.90
25092;DHT22;13082;52.374;4.946;2023-05-10T09:20:06;14.90;99.90
25092;DHT22;13082;52.374;4.946;2023-05-10T09:22:35;15.00;99.90
25092;DHT22;13082;52.374;4.946;2023-05-10T09:25:09;15.20;99.90
25092;DHT22;13082;52.374;4.946;2023-05-10T09:27:37;15.30;99.90
25092;DHT22;13082;52.374;4.946;2023-05-10T09:30:04;15.40;99.90
25092;DHT22;13082;52.374;4.946;2023-05-10T09:32:41;15.40;99.90
25092;DHT22;13082;52.374;4.946;2023-05-10T09:35:15;15.40;99.90
25092;DHT22;13082;52.374;4.946;2023-05-10T09:37:45;15.40;99.90
25092;DHT22;13082;52.374;4.946;2023-05-10T09:40:13;15.30;99.90
25092;DHT22;13082;52.374;4.946;2023-05-10T09:42:41;15.30;99.90
25092;DHT22;13082;52.374;4.946;2023-05-10T09:45:07;15.20;99.90
25092;DHT22;13082;52.374;4.946;2023-05-10T09:47:34;15.20;99.90
25092;DHT22;13082;52.374;4.946;2023-05-10T09:50:01;15.20;99.90
25092;DHT22;13082;52.374;4.946;2023-05-10T09:52:30;15.20;99.90
25092;DHT22;13082;52.374;4.946;2023-05-10T09:54:56;15.10;99.90
25092;DHT22;13082;52.374;4.946;2023-05-10T09:57:23;15.20;99.90
25092;DHT22;13082;52.374;4.946;2023-05-10T09:59:48;15.20;99.90
25092;DHT22;13082;52.374;4.946;2023-05-10T10:02:16;15.10;99.90
25092;DHT22;13082;52.374;4.946;2023-05-10T10:04:43;15.10;99.90
25092;DHT22;13082;52.374;4.946;2023-05-10T10:07:08;15.10;99.90
25092;DHT22;13082;52.374;4.946;2023-05-10T10:09:34;15.00;99.90
25092;DHT22;13082;52.374;4.946;2023-05-10T10:12:01;15.00;99.90
25092;DHT22;13082;52.374;4.946;2023-05-10T10:14:28;15.00;99.90
25092;DHT22;13082;52.374;4.946;2023-05-10T10:16:54;15.00;99.90
25092;DHT22;13082;52.374;4.946;2023-05-10T10:19:20;15.00;99.90
25092;DHT22;13082;52.374;4.946;2023-05-10T10:21:47;15.00;99.90
25092;DHT22;13082;52.374;4.946;2023-05-10T10:24:12;15.10;99.90
25092;DHT22;13082;52.374;4.946;2023-05-10T10:26:38;15.10;99.90
25092;DHT22;13082;52.374;4.946;2023-05-10T10:29:29;15.20;99.90
25092;DHT22;13082;52.374;4.946;2023-05-10T10:32:42;15.20;99.90
25092;DHT22;13082;52.374;4.946;2023-05-10T10:35:15;15.30;99.90
25092;DHT22;13082;52.374;4.946;2023-05-10T10:37:44;15.30;99.90
25092;DHT22;13082;52.374;4.946;2023-05-10T10:42:48;15.40;99.90
25092;DHT22;13082;52.374;4.946;2023-05-10T10:45:15;15.40;99.90
25092;DHT22;13082;52.374;4.946;2023-05-10T10:47:41;15.40;99.90
25092;DHT22;13082;52.374;4.946;2023-05-10T10:50:08;15.40;99.90
25092;DHT22;13082;52.374;4.946;2023-05-10T10:52:39;15.40;99.90
25092;DHT22;13082;52.374;4.946;2023-05-10T10:55:13;15.40;99.90
25092;DHT22;13082;52.374;4.946;2023-05-10T10:57:45;15.40;99.90
25092;DHT22;13082;52.374;4.946;2023-05-10T11:00:36;15.40;99.90
25092;DHT22;13082;52.374;4.946;2023-05-10T11:03:11;15.40;99.90
25092;DHT22;13082;52.374;4.946;2023-05-10T11:05:46;15.40;99.90
25092;DHT22;13082;52.374;4.946;2023-05-10T11:08:28;15.30;99.90
25092;DHT22;13082;52.374;4.946;2023-05-10T11:13:46;15.30;99.90
25092;DHT22;13082;52.374;4.946;2023-05-10T11:16:15;15.30;99.90
25092;DHT22;13082;52.374;4.946;2023-05-10T11:21:17;15.20;99.90
25092;DHT22;13082;52.374;4.946;2023-05-10T11:23:53;15.20;99.90
25092;DHT22;13082;52.374;4.946;2023-05-10T11:26:23;15.20;99.90
25092;DHT22;13082;52.374;4.946;2023-05-10T11:28:54;15.20;99.90
25092;DHT22;13082;52.374;4.946;2023-05-10T11:31:21;15.20;99.90
25092;DHT22;13082;52.374;4.946;2023-05-10T11:33:52;15.20;99.90
25092;DHT22;13082;52.374;4.946;2023-05-10T11:38:46;15.20;99.90
25092;DHT22;13082;52.374;4.946;2023-05-10T11:41:12;15.20;99.90
25092;DHT22;13082;52.374;4.946;2023-05-10T11:43:39;15.20;99.90
25092;DHT22;13082;52.374;4.946;2023-05-10T11:46:10;15.20;99.90
25092;DHT22;13082;52.374;4.946;2023-05-10T11:48:38;15.20;99.90
25092;DHT22;13082;52.374;4.946;2023-05-10T11:51:04;15.20;99.90
25092;DHT22;13082;52.374;4.946;2023-05-10T11:53:32;15.20;99.90
25092;DHT22;13082;52.374;4.946;2023-05-10T11:56:08;15.20;99.90
25092;DHT22;13082;52.374;4.946;2023-05-10T11:58:36;15.20;99.90
25092;DHT22;13082;52.374;4.946;2023-05-10T12:01:03;15.20;99.90
25092;DHT22;13082;52.374;4.946;2023-05-10T12:03:30;15.20;99.90
25092;DHT22;13082;52.374;4.946;2023-05-10T12:05:56;15.20;99.90
25092;DHT22;13082;52.374;4.946;2023-05-10T12:08:27;15.30;99.90
25092;DHT22;13082;52.374;4.946;2023-05-10T12:11:06;15.30;99.90
25092;DHT22;13082;52.374;4.946;2023-05-10T12:13:32;15.40;99.90
25092;DHT22;13082;52.374;4.946;2023-05-10T12:15:58;15.50;99.90
25092;DHT22;13082;52.374;4.946;2023-05-10T12:18:24;15.50;99.90
25092;DHT22;13082;52.374;4.946;2023-05-10T12:20:52;15.50;99.90
25092;DHT22;13082;52.374;4.946;2023-05-10T12:23:19;15.50;99.90
25092;DHT22;13082;52.374;4.946;2023-05-10T12:25:46;15.60;99.90
25092;DHT22;13082;52.374;4.946;2023-05-10T12:28:12;15.60;99.90
25092;DHT22;13082;52.374;4.946;2023-05-10T12:30:38;15.60;99.90
25092;DHT22;13082;52.374;4.946;2023-05-10T12:33:12;15.60;99.90
25092;DHT22;13082;52.374;4.946;2023-05-10T12:35:52;15.60;99.90
25092;DHT22;13082;52.374;4.946;2023-05-10T12:38:40;15.60;99.90
25092;DHT22;13082;52.374;4.946;2023-05-10T12:41:12;15.60;99.90
25092;DHT22;13082;52.374;4.946;2023-05-10T12:43:39;15.70;99.90
25092;DHT22;13082;52.374;4.946;2023-05-10T12:46:13;15.80;99.90
25092;DHT22;13082;52.374;4.946;2023-05-10T12:48:41;15.80;99.90
25092;DHT22;13082;52.374;4.946;2023-05-10T12:51:07;15.80;99.90
25092;DHT22;13082;52.374;4.946;2023-05-10T12:53:39;15.90;99.90
25092;DHT22;13082;52.374;4.946;2023-05-10T12:56:05;16.00;99.90
25092;DHT22;13082;52.374;4.946;2023-05-10T12:58:31;16.10;99.90
25092;DHT22;13082;52.374;4.946;2023-05-10T13:00:57;16.10;99.90
25092;DHT22;13082;52.374;4.946;2023-05-10T13:03:23;16.10;99.90
25092;DHT22;13082;52.374;4.946;2023-05-10T13:05:49;16.10;99.90
25092;DHT22;13082;52.374;4.946;2023-05-10T13:08:15;16.10;99.90
25092;DHT22;13082;52.374;4.946;2023-05-10T13:10:40;16.20;99.90
25092;DHT22;13082;52.374;4.946;2023-05-10T13:13:06;16.10;99.90
25092;DHT22;13082;52.374;4.946;2023-05-10T13:15:32;16.20;99.90
25092;DHT22;13082;52.374;4.946;2023-05-10T13:17:58;16.20;99.90
25092;DHT22;13082;52.374;4.946;2023-05-10T13:20:27;16.20;99.90
25092;DHT22;13082;52.374;4.946;2023-05-10T13:22:53;16.20;99.90
25092;DHT22;13082;52.374;4.946;2023-05-10T13:25:19;16.30;99.90
25092;DHT22;13082;52.374;4.946;2023-05-10T13:27:45;16.30;99.90
25092;DHT22;13082;52.374;4.946;2023-05-10T13:30:11;16.30;99.90
25092;DHT22;13082;52.374;4.946;2023-05-10T13:32:37;16.30;99.90
25092;DHT22;13082;52.374;4.946;2023-05-10T13:35:03;16.30;99.90
25092;DHT22;13082;52.374;4.946;2023-05-10T13:37:29;16.30;99.90
25092;DHT22;13082;52.374;4.946;2023-05-10T13:39:55;16.30;99.90
25092;DHT22;13082;52.374;4.946;2023-05-10T13:42:22;16.30;99.90
25092;DHT22;13082;52.374;4.946;2023-05-10T13:44:48;16.30;99.90
25092;DHT22;13082;52.374;4.946;2023-05-10T13:47:13;16.30;99.90
25092;DHT22;13082;52.374;4.946;2023-05-10T13:49:39;16.30;99.90
25092;DHT22;13082;52.374;4.946;2023-05-10T13:52:05;16.30;99.90
25092;DHT22;13082;52.374;4.946;2023-05-10T13:54:35;16.20;99.90
25092;DHT22;13082;52.374;4.946;2023-05-10T13:57:01;16.30;99.90
25092;DHT22;13082;52.374;4.946;2023-05-10T13:59:27;16.20;99.90
25092;DHT22;13082;52.374;4.946;2023-05-10T14:01:52;16.20;99.90
25092;DHT22;13082;52.374;4.946;2023-05-10T14:04:18;16.20;99.90
25092;DHT22;13082;52.374;4.946;2023-05-10T14:06:44;16.20;99.90
25092;DHT22;13082;52.374;4.946;2023-05-10T14:09:09;16.20;99.90
25092;DHT22;13082;52.374;4.946;2023-05-10T14:11:35;16.20;99.90
25092;DHT22;13082;52.374;4.946;2023-05-10T14:14:00;16.20;99.90
25092;DHT22;13082;52.374;4.946;2023-05-10T14:16:26;16.10;99.90
25092;DHT22;13082;52.374;4.946;2023-05-10T14:18:52;16.00;99.90
25092;DHT22;13082;52.374;4.946;2023-05-10T14:21:18;16.10;99.90
25092;DHT22;13082;52.374;4.946;2023-05-10T14:23:43;16.10;99.90
25092;DHT22;13082;52.374;4.946;2023-05-10T14:26:09;16.20;99.90
25092;DHT22;13082;52.374;4.946;2023-05-10T14:28:34;16.20;99.90
25092;DHT22;13082;52.374;4.946;2023-05-10T14:31:00;16.10;99.90
25092;DHT22;13082;52.374;4.946;2023-05-10T14:33:26;16.20;99.90
25092;DHT22;13082;52.374;4.946;2023-05-10T14:35:51;16.20;99.90
25092;DHT22;13082;52.374;4.946;2023-05-10T14:38:17;16.20;99.90
25092;DHT22;13082;52.374;4.946;2023-05-10T14:40:43;16.30;99.90
25092;DHT22;13082;52.374;4.946;2023-05-10T14:43:09;16.30;99.90
25092;DHT22;13082;52.374;4.946;2023-05-10T14:45:34;16.30;99.90
25092;DHT22;13082;52.374;4.946;2023-05-10T14:48:00;16.20;99.90
25092;DHT22;13082;52.374;4.946;2023-05-10T14:50:26;16.30;99.90
25092;DHT22;13082;52.374;4.946;2023-05-10T14:52:52;16.30;99.90
25092;DHT22;13082;52.374;4.946;2023-05-10T14:55:17;16.20;99.90
25092;DHT22;13082;52.374;4.946;2023-05-10T14:57:43;16.20;99.90
25092;DHT22;13082;52.374;4.946;2023-05-10T15:00:09;16.20;99.90
25092;DHT22;13082;52.374;4.946;2023-05-10T15:02:35;16.20;99.90
25092;DHT22;13082;52.374;4.946;2023-05-10T15:05:01;16.10;99.90
25092;DHT22;13082;52.374;4.946;2023-05-10T15:07:27;16.10;99.90
25092;DHT22;13082;52.374;4.946;2023-05-10T15:09:53;16.10;99.90
25092;DHT22;13082;52.374;4.946;2023-05-10T15:12:19;16.10;99.90
25092;DHT22;13082;52.374;4.946;2023-05-10T15:14:45;16.00;99.90
25092;DHT22;13082;52.374;4.946;2023-05-10T15:17:11;16.00;99.90
25092;DHT22;13082;52.374;4.946;2023-05-10T15:19:37;15.90;99.90
25092;DHT22;13082;52.374;4.946;2023-05-10T15:22:04;15.90;99.90
25092;DHT22;13082;52.374;4.946;2023-05-10T15:24:31;16.00;99.90
25092;DHT22;13082;52.374;4.946;2023-05-10T15:26:57;16.00;99.90
25092;DHT22;13082;52.374;4.946;2023-05-10T15:29:22;15.90;99.90
25092;DHT22;13082;52.374;4.946;2023-05-10T15:31:49;16.00;99.90
25092;DHT22;13082;52.374;4.946;2023-05-10T15:34:16;16.00;99.90
25092;DHT22;13082;52.374;4.946;2023-05-10T15:36:42;15.90;99.90
25092;DHT22;13082;52.374;4.946;2023-05-10T15:39:07;15.90;99.90
25092;DHT22;13082;52.374;4.946;2023-05-10T15:41:35;15.90;99.90
25092;DHT22;13082;52.374;4.946;2023-05-10T15:44:00;15.80;99.90
25092;DHT22;13082;52.374;4.946;2023-05-10T15:46:30;15.80;99.90
25092;DHT22;13082;52.374;4.946;2023-05-10T15:48:57;15.80;99.90
25092;DHT22;13082;52.374;4.946;2023-05-10T15:51:22;15.80;99.90
25092;DHT22;13082;52.374;4.946;2023-05-10T15:53:48;15.80;99.90
25092;DHT22;13082;52.374;4.946;2023-05-10T15:56:13;15.80;99.90
25092;DHT22;13082;52.374;4.946;2023-05-10T15:58:40;15.80;99.90
25092;DHT22;13082;52.374;4.946;2023-05-10T16:01:06;15.80;99.90
25092;DHT22;13082;52.374;4.946;2023-05-10T16:03:32;15.90;99.90